This is the latest recevied weather packets stored in our database for station/object KN6KS. If no packets are shown the sender has not sent any weather packets the latest 10 day(s).
| Time | Temp. | Humidity | Pressure | Rain* | Wind** | Luminosity | Snow |
|---|---|---|---|---|---|---|---|
| 1777309469 | 11.67° C | 56% | 1013.9 hPa | 0 mm | - | 857 W/m² | - |
| 1777306436 | 11.67° C | 58% | 1013.8 hPa | 0 mm | - | 590 W/m² | - |
| 1777304611 | 11.11° C | 62% | 1013.5 hPa | 0 mm | - | 377 W/m² | - |
| 1777304307 | 10.56° C | 61% | 1013.6 hPa | 0 mm | - | 344 W/m² | - |
| 1777304004 | 10.56° C | 61% | 1013.4 hPa | 0 mm | - | 324 W/m² | - |
| 1777303700 | 10.56° C | 63% | 1013.8 hPa | 0 mm | - | 319 W/m² | - |
| 1777303398 | 10.56° C | 62% | 1013.6 hPa | 0 mm | - | 286 W/m² | - |
| 1777302189 | 10.56° C | 62% | 1013.5 hPa | 0 mm | - | 212 W/m² | - |
| 1777300669 | 9.44° C | 67% | 1013.4 hPa | 0 mm | - | 72 W/m² | - |
| 1777300367 | 9.44° C | 67% | 1013.4 hPa | 0 mm | - | 115 W/m² | - |
| 1777300064 | 9.44° C | 67% | 1013.4 hPa | 0 mm | - | 88 W/m² | - |
| 1777299761 | 9.44° C | 68% | 1013.3 hPa | 0 mm | - | 100 W/m² | - |
| 1777299458 | 9.44° C | 67% | 1013.6 hPa | 0 mm | - | 106 W/m² | - |
| 1777299155 | 9.44° C | 68% | 1013.4 hPa | 0 mm | - | 91 W/m² | - |
| 1777298246 | 8.89° C | 69% | 1013.5 hPa | 0 mm | - | 66 W/m² | - |
| 1777297032 | 8.89° C | 70% | 1013.1 hPa | 0 mm | - | 26 W/m² | - |
| 1777296729 | 8.89° C | 70% | 1013.2 hPa | 0 mm | - | 24 W/m² | - |
| 1777296424 | 8.89° C | 70% | 1013 hPa | 0 mm | - | 15 W/m² | - |
| 1777296121 | 8.89° C | 70% | 1013 hPa | 0 mm | - | 10 W/m² | - |
| 1777295817 | 8.89° C | 69% | 1013.1 hPa | 0 mm | - | 6 W/m² | - |
| 1777295515 | 8.89° C | 69% | 1013 hPa | 0 mm | - | 2 W/m² | - |
| 1777295213 | 8.89° C | 69% | 1012.8 hPa | 0 mm | - | 0 W/m² | - |
| 1777294610 | 8.89° C | 69% | 1012.9 hPa | 0 mm | - | 0 W/m² | - |
| 1777293394 | 8.89° C | 69% | 1012.9 hPa | 0 mm | - | 0 W/m² | - |
| 1777293091 | 8.89° C | 68% | 1012.9 hPa | 0 mm | - | 0 W/m² | - |
* Rain latest hour (hover to see other rain measurements)
** Current wind speed in m/s (hover to see current wind gust speed)